createdAt,value
2018-02-13T00:01:54.702Z,67.40
2018-02-13T00:04:23.025Z,67.80
2018-02-13T00:06:58.421Z,67.40
2018-02-13T00:09:26.709Z,67.40
2018-02-13T00:11:55.008Z,67.20
2018-02-13T00:14:23.726Z,67.60
2018-02-13T00:16:55.058Z,67.50
2018-02-13T00:19:23.385Z,67.90
2018-02-13T00:21:52.473Z,68.40
2018-02-13T00:24:20.767Z,67.50
2018-02-13T00:26:49.230Z,67.10
2018-02-13T00:29:17.531Z,67.30
2018-02-13T00:31:45.817Z,67.50
2018-02-13T00:34:14.133Z,66.90
2018-02-13T00:36:42.434Z,67.90
2018-02-13T00:39:10.709Z,67.00
2018-02-13T00:41:39.048Z,66.50
2018-02-13T00:44:07.335Z,66.80
2018-02-13T00:46:36.720Z,67.20
2018-02-13T00:49:05.778Z,67.30
2018-02-13T00:51:34.065Z,67.20
2018-02-13T00:54:02.675Z,67.80
2018-02-13T00:56:30.969Z,67.30
2018-02-13T00:58:59.258Z,67.20
2018-02-13T01:01:27.575Z,66.90
2018-02-13T01:03:56.625Z,67.90
2018-02-13T01:06:25.197Z,67.80
2018-02-13T01:08:53.491Z,68.20
2018-02-13T01:11:21.775Z,68.70
2018-02-13T01:13:50.110Z,68.20
2018-02-13T01:16:18.382Z,68.50
2018-02-13T01:18:46.702Z,69.20
2018-02-13T01:21:15.033Z,69.50
2018-02-13T01:23:43.330Z,70.50
2018-02-13T01:26:11.642Z,70.30
2018-02-13T01:28:39.926Z,69.70
2018-02-13T01:31:08.257Z,69.80
2018-02-13T01:33:37.562Z,69.60
2018-02-13T01:36:05.889Z,69.50
2018-02-13T01:38:34.178Z,69.50
2018-02-13T01:41:02.642Z,69.60
2018-02-13T01:43:31.686Z,71.00
2018-02-13T01:45:59.976Z,71.00
2018-02-13T01:48:29.272Z,71.10
2018-02-13T01:50:57.566Z,71.00
2018-02-13T01:53:25.845Z,71.50
2018-02-13T01:55:54.262Z,71.80
2018-02-13T01:58:22.552Z,71.80
2018-02-13T02:00:50.876Z,72.50
2018-02-13T02:03:19.190Z,72.50
2018-02-13T02:05:47.522Z,73.00
2018-02-13T02:08:15.822Z,73.60
2018-02-13T02:10:44.418Z,74.60
2018-02-13T02:13:12.696Z,73.90
2018-02-13T02:15:48.374Z,74.00
2018-02-13T02:18:16.665Z,74.30
2018-02-13T02:20:44.946Z,74.60
2018-02-13T02:23:13.542Z,74.70
2018-02-13T02:25:41.830Z,75.10
2018-02-13T02:28:10.155Z,75.20
2018-02-13T02:30:39.442Z,75.80
2018-02-13T02:33:07.743Z,75.70
2018-02-13T02:35:36.028Z,75.80
2018-02-13T02:38:04.364Z,76.20
2018-02-13T02:40:32.657Z,76.30
2018-02-13T02:43:07.424Z,76.50
2018-02-13T02:45:35.711Z,76.70
2018-02-13T02:48:03.987Z,77.00
2018-02-13T02:50:32.322Z,77.20
2018-02-13T02:53:01.595Z,77.20
2018-02-13T02:55:29.870Z,77.30
2018-02-13T02:57:58.190Z,77.20
2018-02-13T03:00:26.496Z,77.60
2018-02-13T03:02:54.845Z,78.00
2018-02-13T03:05:23.157Z,77.90
2018-02-13T03:07:51.435Z,78.40
2018-02-13T03:10:19.893Z,78.30
2018-02-13T03:12:48.198Z,78.20
2018-02-13T03:15:16.470Z,78.50
2018-02-13T03:17:44.939Z,78.90
2018-02-13T03:20:13.986Z,79.00
2018-02-13T03:22:42.257Z,79.10
2018-02-13T03:25:10.578Z,79.30
2018-02-13T03:27:38.878Z,79.80
2018-02-13T03:30:07.198Z,79.10
2018-02-13T03:32:36.270Z,80.20
2018-02-13T03:35:04.572Z,80.20
2018-02-13T03:37:32.915Z,80.10
2018-02-13T03:40:01.211Z,79.20
2018-02-13T03:42:29.530Z,80.50
2018-02-13T03:44:58.415Z,81.50
2018-02-13T03:47:26.728Z,81.80
2018-02-13T03:49:55.410Z,82.00
2018-02-13T03:52:23.693Z,81.80
2018-02-13T03:54:51.990Z,82.30
2018-02-13T03:57:20.324Z,83.30
2018-02-13T03:59:48.596Z,81.70
2018-02-13T04:02:17.009Z,82.40
2018-02-13T04:04:47.293Z,83.10
2018-02-13T04:07:15.594Z,83.00
2018-02-13T04:09:43.925Z,83.60
2018-02-13T04:12:12.226Z,83.90
2018-02-13T04:14:40.540Z,84.00
2018-02-13T04:17:08.861Z,84.40
2018-02-13T04:19:37.170Z,84.70
2018-02-13T04:22:06.245Z,85.20
2018-02-13T04:24:34.576Z,85.10
2018-02-13T04:27:03.657Z,85.10
2018-02-13T04:29:31.959Z,85.10
2018-02-13T04:32:00.311Z,85.30
2018-02-13T04:34:28.581Z,85.80
2018-02-13T04:36:57.177Z,85.90
2018-02-13T04:39:26.382Z,86.40
2018-02-13T04:41:54.673Z,87.10
2018-02-13T04:44:23.046Z,87.10
2018-02-13T04:46:51.397Z,88.20
2018-02-13T04:49:19.678Z,88.30
2018-02-13T04:51:47.959Z,88.50
2018-02-13T04:54:16.285Z,88.30
2018-02-13T04:56:45.334Z,89.10
2018-02-13T04:59:13.653Z,89.10
2018-02-13T05:01:41.972Z,90.70
2018-02-13T05:04:10.284Z,90.00
2018-02-13T05:06:38.585Z,90.30
2018-02-13T05:09:06.900Z,90.50
2018-02-13T05:11:35.177Z,90.00
2018-02-13T05:14:03.483Z,90.30
2018-02-13T05:16:31.780Z,90.10
2018-02-13T05:19:00.433Z,90.50
2018-02-13T05:21:28.714Z,90.50
2018-02-13T05:23:57.046Z,91.10
2018-02-13T05:26:25.367Z,87.70
2018-02-13T05:28:55.327Z,88.40
2018-02-13T05:31:23.651Z,88.50
2018-02-13T05:33:51.969Z,89.90
2018-02-13T05:36:21.029Z,91.20
2018-02-13T05:38:49.345Z,91.30
2018-02-13T05:41:17.678Z,92.30
2018-02-13T05:43:46.002Z,92.40
2018-02-13T05:46:14.302Z,93.00
2018-02-13T05:48:42.634Z,94.20
2018-02-13T05:51:10.922Z,93.10
2018-02-13T05:53:39.249Z,92.80
2018-02-13T05:56:07.538Z,93.40
2018-02-13T05:58:36.282Z,93.90
2018-02-13T06:01:05.361Z,93.30
2018-02-13T06:03:33.646Z,93.30
2018-02-13T06:06:01.974Z,93.00
2018-02-13T06:08:31.054Z,93.40
2018-02-13T06:10:59.385Z,93.40
2018-02-13T06:13:27.742Z,92.80
2018-02-13T06:15:56.099Z,91.70
2018-02-13T06:18:24.579Z,90.60
2018-02-13T06:20:52.990Z,89.50
2018-02-13T06:23:21.295Z,89.50
2018-02-13T06:25:50.570Z,89.00
2018-02-13T06:28:19.042Z,89.60
2018-02-13T06:30:47.369Z,90.20
2018-02-13T06:33:16.554Z,91.20
2018-02-13T06:35:44.909Z,91.80
2018-02-13T06:38:13.963Z,92.60
2018-02-13T06:40:42.278Z,92.60
2018-02-13T06:43:11.371Z,94.70
2018-02-13T06:45:39.743Z,94.60
2018-02-13T06:48:08.030Z,94.30
2018-02-13T06:50:36.387Z,94.70
2018-02-13T06:53:05.478Z,94.00
2018-02-13T06:55:34.539Z,94.40
2018-02-13T06:58:03.026Z,94.20
2018-02-13T07:00:35.625Z,94.80
2018-02-13T07:03:03.991Z,94.60
2018-02-13T07:05:32.301Z,94.30
2018-02-13T07:08:00.613Z,95.10
2018-02-13T07:10:28.950Z,93.80
2018-02-13T07:12:57.303Z,93.30
2018-02-13T07:15:25.592Z,91.70
2018-02-13T07:17:53.929Z,91.20
2018-02-13T07:20:22.206Z,92.00
2018-02-13T07:22:51.787Z,91.90
2018-02-13T07:25:21.175Z,91.50
2018-02-13T07:27:49.488Z,91.00
2018-02-13T07:30:18.210Z,88.40
2018-02-13T07:32:46.581Z,85.10
2018-02-13T07:35:14.927Z,83.10
2018-02-13T07:37:43.208Z,79.20
2018-02-13T07:40:11.528Z,76.40
2018-02-13T07:42:39.885Z,73.70
2018-02-13T07:45:08.249Z,71.40
2018-02-13T07:47:36.538Z,69.60
2018-02-13T07:50:05.593Z,66.30
2018-02-13T07:52:35.146Z,66.20
2018-02-13T07:55:03.427Z,63.70
2018-02-13T07:57:31.729Z,62.80
2018-02-13T08:00:00.095Z,62.00
2018-02-13T08:02:28.405Z,61.80
2018-02-13T08:04:56.712Z,63.40
2018-02-13T08:07:25.825Z,63.50
2018-02-13T08:09:55.731Z,63.20
2018-02-13T08:12:24.859Z,62.30
2018-02-13T08:14:53.180Z,61.80
2018-02-13T08:17:22.324Z,58.90
2018-02-13T08:19:50.693Z,59.60
2018-02-13T08:22:22.279Z,59.40
2018-02-13T08:24:50.607Z,59.70
2018-02-13T08:27:19.806Z,60.50
2018-02-13T08:29:48.849Z,63.10
2018-02-13T08:32:17.131Z,62.30
2018-02-13T08:34:45.436Z,60.90
2018-02-13T08:37:13.728Z,59.20
2018-02-13T08:39:42.049Z,57.60
2018-02-13T08:42:11.154Z,52.00
2018-02-13T08:44:39.495Z,51.90
2018-02-13T08:47:08.538Z,52.90
2018-02-13T08:49:37.016Z,52.90
2018-02-13T08:52:05.289Z,53.20
2018-02-13T08:54:33.569Z,53.80
2018-02-13T08:57:01.965Z,52.80
2018-02-13T08:59:30.242Z,52.30
2018-02-13T09:01:59.749Z,56.80
2018-02-13T09:04:28.817Z,57.10
2018-02-13T09:06:57.102Z,57.10
2018-02-13T09:09:25.410Z,56.30
2018-02-13T09:11:53.716Z,55.60
2018-02-13T09:14:22.019Z,55.80
2018-02-13T09:16:50.325Z,52.40
2018-02-13T09:19:18.593Z,49.70
2018-02-13T09:21:49.646Z,47.90
2018-02-13T09:24:17.929Z,47.70
2018-02-13T09:26:46.222Z,44.50
2018-02-13T09:29:14.585Z,45.50
2018-02-13T09:31:42.894Z,43.70
2018-02-13T09:34:11.197Z,43.80
2018-02-13T09:36:39.487Z,42.50
2018-02-13T09:39:10.701Z,44.00
2018-02-13T09:41:38.996Z,44.00
2018-02-13T09:44:08.079Z,42.80
2018-02-13T09:46:36.415Z,42.70
2018-02-13T09:49:04.701Z,42.40
2018-02-13T09:51:33.046Z,42.60
2018-02-13T09:54:01.326Z,43.30
2018-02-13T09:56:29.617Z,43.00
2018-02-13T09:58:59.009Z,41.60
2018-02-13T10:01:28.054Z,41.70
2018-02-13T10:03:56.325Z,41.60
2018-02-13T10:06:24.650Z,39.60
2018-02-13T10:08:54.919Z,38.90
2018-02-13T10:11:24.015Z,39.40
2018-02-13T10:13:52.351Z,39.40
2018-02-13T10:16:20.659Z,41.00
2018-02-13T10:18:48.950Z,39.60
2018-02-13T10:21:17.261Z,38.50
2018-02-13T10:23:45.601Z,38.40
2018-02-13T10:26:18.666Z,38.50
2018-02-13T10:28:48.017Z,39.80
2018-02-13T10:31:16.337Z,39.20
2018-02-13T10:33:44.606Z,38.40
2018-02-13T10:36:23.302Z,38.40
2018-02-13T10:38:52.337Z,37.00
2018-02-13T10:41:20.646Z,37.00
2018-02-13T10:43:49.112Z,36.70
2018-02-13T10:46:21.854Z,36.20
2018-02-13T10:48:50.318Z,34.90
2018-02-13T10:51:19.600Z,35.10
2018-02-13T10:53:48.703Z,32.30
2018-02-13T10:56:16.997Z,32.20
2018-02-13T10:59:10.704Z,31.90
2018-02-13T11:01:48.102Z,31.90
2018-02-13T11:04:16.390Z,29.50
2018-02-13T11:06:45.632Z,31.40
2018-02-13T11:09:21.879Z,31.40
2018-02-13T11:11:52.059Z,33.50
2018-02-13T11:14:21.371Z,33.50
2018-02-13T11:16:49.709Z,35.10
2018-02-13T11:19:18.764Z,34.70
2018-02-13T11:21:47.132Z,34.70
2018-02-13T11:24:15.476Z,35.40
2018-02-13T11:26:44.226Z,35.80
2018-02-13T11:29:12.552Z,36.90
2018-02-13T11:31:40.849Z,34.30
2018-02-13T11:34:09.197Z,36.40
2018-02-13T11:36:37.479Z,38.20
2018-02-13T11:39:21.353Z,37.30
2018-02-13T11:42:07.300Z,37.70
2018-02-13T11:44:55.426Z,38.50
2018-02-13T11:47:23.713Z,38.20
2018-02-13T11:49:51.985Z,36.60
2018-02-13T11:52:20.285Z,35.30
2018-02-13T11:54:48.555Z,37.10
2018-02-13T11:57:16.865Z,38.00
2018-02-13T11:59:45.184Z,36.70
2018-02-13T12:02:21.721Z,37.20
2018-02-13T12:04:51.081Z,36.90
2018-02-13T12:07:19.666Z,36.80
2018-02-13T12:09:48.103Z,37.10
2018-02-13T12:12:16.470Z,37.20
2018-02-13T12:14:44.745Z,38.70
2018-02-13T12:17:13.977Z,39.60
2018-02-13T12:19:42.547Z,39.30
2018-02-13T12:22:11.742Z,40.70
2018-02-13T12:24:40.052Z,41.00
2018-02-13T12:27:08.379Z,40.60
2018-02-13T12:32:24.003Z,41.20
2018-02-13T12:34:52.681Z,41.00
2018-02-13T12:37:21.964Z,41.90
2018-02-13T12:39:51.242Z,40.40
2018-02-13T12:42:19.560Z,38.30
2018-02-13T12:45:18.421Z,37.10
2018-02-13T12:47:47.486Z,36.80
2018-02-13T12:50:15.839Z,39.60
2018-02-13T12:52:44.122Z,40.60
2018-02-13T12:55:12.733Z,39.40
2018-02-13T12:57:55.856Z,40.50
2018-02-13T13:00:29.333Z,40.00
2018-02-13T13:02:57.666Z,38.70
2018-02-13T13:05:27.043Z,38.60
2018-02-13T13:07:56.110Z,39.20
2018-02-13T13:10:31.711Z,39.20
2018-02-13T13:13:21.254Z,37.80
2018-02-13T13:19:08.826Z,38.40
2018-02-13T13:21:37.102Z,35.10
2018-02-13T13:26:48.060Z,31.00
2018-02-13T13:29:16.426Z,31.30
2018-02-13T13:31:44.751Z,30.10
2018-02-13T13:34:14.039Z,31.20
2018-02-13T13:36:42.361Z,31.00
2018-02-13T13:39:10.694Z,31.40
2018-02-13T13:41:39.035Z,31.60
2018-02-13T13:44:07.489Z,28.90
2018-02-13T13:46:35.794Z,29.70
2018-02-13T13:49:04.095Z,30.80
2018-02-13T13:51:32.408Z,29.90
2018-02-13T13:54:03.637Z,30.50
2018-02-13T13:56:32.001Z,30.30
2018-02-13T13:59:00.292Z,30.80
2018-02-13T14:01:28.605Z,31.00
2018-02-13T14:03:57.000Z,30.70
2018-02-13T14:06:25.318Z,30.50
2018-02-13T14:08:55.716Z,30.30
2018-02-13T14:11:26.050Z,31.20
2018-02-13T14:13:54.573Z,30.70
2018-02-13T14:16:22.891Z,30.90
2018-02-13T14:18:51.253Z,30.20
2018-02-13T14:21:19.817Z,31.50
2018-02-13T14:23:48.170Z,31.10
2018-02-13T14:26:16.485Z,31.50
2018-02-13T14:28:44.832Z,31.30
2018-02-13T14:31:13.295Z,33.10
2018-02-13T14:33:41.732Z,32.40
2018-02-13T14:36:14.990Z,33.20
2018-02-13T14:38:43.335Z,31.60
2018-02-13T14:41:21.962Z,31.20
2018-02-13T14:43:50.327Z,33.00
2018-02-13T14:46:37.655Z,32.90
2018-02-13T14:49:06.260Z,31.50
2018-02-13T14:51:34.665Z,32.00
2018-02-13T14:54:02.983Z,32.60
2018-02-13T14:59:31.597Z,32.00
2018-02-13T15:01:59.914Z,33.10
2018-02-13T15:04:28.301Z,34.90
2018-02-13T15:06:56.605Z,33.30
2018-02-13T15:09:24.890Z,33.40
2018-02-13T15:11:53.221Z,34.70
2018-02-13T15:14:22.938Z,34.60
2018-02-13T15:20:04.038Z,32.10
2018-02-13T15:22:32.494Z,32.70
2018-02-13T15:25:02.780Z,32.10
2018-02-13T15:27:31.149Z,33.80
2018-02-13T15:29:59.627Z,32.80
2018-02-13T15:32:28.032Z,32.80
2018-02-13T15:34:56.398Z,32.80
2018-02-13T15:37:24.805Z,32.80
2018-02-13T15:39:53.554Z,34.00
2018-02-13T15:42:21.990Z,34.10
2018-02-13T15:44:50.338Z,34.00
2018-02-13T15:47:20.846Z,33.80
2018-02-13T15:49:49.397Z,34.70
2018-02-13T15:52:18.449Z,34.80
2018-02-13T15:54:46.779Z,34.90
2018-02-13T15:57:16.452Z,34.60
2018-02-13T15:59:44.780Z,34.90
2018-02-13T16:02:13.139Z,35.00
2018-02-13T16:04:41.494Z,34.90
2018-02-13T16:07:09.961Z,35.20
2018-02-13T16:09:38.297Z,34.30
2018-02-13T16:12:06.592Z,35.10
2018-02-13T16:14:34.950Z,34.90
2018-02-13T16:17:03.276Z,35.10
2018-02-13T16:19:31.579Z,35.40
2018-02-13T16:21:59.990Z,36.10
2018-02-13T16:24:28.633Z,36.60
2018-02-13T16:26:57.036Z,36.90
2018-02-13T16:29:27.476Z,36.90
2018-02-13T16:31:55.767Z,36.60
2018-02-13T16:34:24.900Z,36.60
2018-02-13T16:36:53.239Z,36.60
2018-02-13T16:39:22.608Z,36.90
2018-02-13T16:41:50.947Z,37.10
2018-02-13T16:44:19.292Z,36.40
2018-02-13T16:46:51.337Z,36.70
2018-02-13T16:49:19.885Z,36.90
2018-02-13T16:51:49.214Z,37.80
2018-02-13T16:54:17.518Z,37.70
2018-02-13T16:56:45.873Z,38.20
2018-02-13T16:59:17.586Z,38.00
2018-02-13T17:01:46.452Z,38.70
2018-02-13T17:04:40.353Z,37.50
2018-02-13T17:07:28.257Z,38.20
2018-02-13T17:13:21.806Z,37.30
2018-02-13T17:18:29.486Z,37.80
2018-02-13T17:20:57.832Z,38.60
2018-02-13T17:23:26.170Z,37.80
2018-02-13T17:25:56.366Z,37.80
2018-02-13T17:28:33.907Z,38.10
2018-02-13T17:31:02.225Z,38.20
2018-02-13T17:33:30.632Z,37.50
2018-02-13T17:36:01.627Z,38.30
2018-02-13T17:38:31.589Z,37.90
2018-02-13T17:41:00.050Z,37.80
2018-02-13T17:43:28.387Z,38.20
2018-02-13T17:45:56.805Z,38.40
2018-02-13T17:48:25.130Z,38.20
2018-02-13T17:50:56.034Z,37.90
2018-02-13T17:53:59.634Z,37.90
2018-02-13T17:56:28.019Z,38.00
2018-02-13T17:58:56.357Z,39.70
2018-02-13T18:01:24.706Z,39.10
2018-02-13T18:03:53.032Z,39.40
2018-02-13T18:06:21.379Z,39.80
2018-02-13T18:08:54.510Z,39.50
2018-02-13T18:11:22.882Z,38.90
2018-02-13T18:13:51.309Z,39.40
2018-02-13T18:16:38.370Z,39.60
2018-02-13T18:19:07.010Z,39.40
2018-02-13T18:21:35.311Z,39.70
2018-02-13T18:24:03.583Z,39.50
2018-02-13T18:26:32.357Z,39.50
2018-02-13T18:29:00.660Z,39.80
2018-02-13T18:31:28.957Z,39.40
2018-02-13T18:33:57.284Z,39.40
2018-02-13T18:36:25.619Z,39.70
2018-02-13T18:38:53.915Z,40.00
2018-02-13T18:41:22.247Z,40.10
2018-02-13T18:43:51.318Z,40.10
2018-02-13T18:46:19.719Z,40.10
2018-02-13T18:48:48.284Z,40.60
2018-02-13T18:51:16.700Z,41.10
2018-02-13T18:53:45.213Z,41.40
2018-02-13T18:56:13.559Z,41.20
2018-02-13T18:58:42.836Z,42.00
2018-02-13T19:01:11.343Z,41.60
2018-02-13T19:03:39.659Z,42.20
2018-02-13T19:06:07.970Z,43.50
2018-02-13T19:08:36.287Z,43.60
2018-02-13T19:11:04.591Z,43.00
2018-02-13T19:13:33.730Z,42.90
2018-02-13T19:16:02.129Z,42.90
2018-02-13T19:18:30.512Z,43.20
2018-02-13T19:20:58.864Z,42.80
2018-02-13T19:23:28.574Z,42.80
2018-02-13T19:25:57.946Z,42.60
2018-02-13T19:28:26.291Z,42.50
2018-02-13T19:30:55.626Z,42.90
2018-02-13T19:33:23.951Z,43.40
2018-02-13T19:35:52.346Z,43.70
2018-02-13T19:38:20.669Z,43.50
2018-02-13T19:40:49.003Z,43.80
2018-02-13T19:43:17.375Z,43.90
2018-02-13T19:45:45.729Z,44.50
2018-02-13T19:48:14.578Z,45.70
2018-02-13T19:50:42.943Z,46.70
2018-02-13T19:53:12.043Z,48.60
2018-02-13T19:55:40.416Z,48.60
2018-02-13T19:58:08.718Z,49.40
2018-02-13T20:00:37.011Z,49.50
2018-02-13T20:03:05.466Z,48.20
2018-02-13T20:05:34.011Z,48.10
2018-02-13T20:08:02.340Z,47.70
2018-02-13T20:10:30.715Z,47.10
2018-02-13T20:12:59.093Z,47.30
2018-02-13T20:15:28.215Z,46.70
2018-02-13T20:17:56.551Z,46.70
2018-02-13T20:20:24.967Z,47.70
2018-02-13T20:22:54.284Z,47.50
2018-02-13T20:25:22.601Z,47.00
2018-02-13T20:27:50.937Z,46.90
2018-02-13T20:30:19.264Z,48.30
2018-02-13T20:32:47.572Z,48.20
2018-02-13T20:35:15.909Z,48.10
2018-02-13T20:37:46.373Z,47.10
2018-02-13T20:40:14.725Z,47.90
2018-02-13T20:42:43.092Z,46.40
2018-02-13T20:45:11.931Z,47.00
2018-02-13T20:47:40.287Z,47.10
2018-02-13T20:50:09.736Z,47.40
2018-02-13T20:52:38.109Z,47.40
2018-02-13T20:55:06.603Z,47.50
2018-02-13T20:57:45.065Z,47.60
2018-02-13T21:00:13.534Z,49.40
2018-02-13T21:02:46.374Z,49.90
2018-02-13T21:05:21.347Z,50.00
2018-02-13T21:07:52.316Z,50.10
2018-02-13T21:10:21.805Z,50.20
2018-02-13T21:12:50.364Z,50.00
2018-02-13T21:15:18.767Z,49.80
2018-02-13T21:17:47.111Z,49.70
2018-02-13T21:20:15.725Z,50.40
2018-02-13T21:22:44.087Z,51.40
2018-02-13T21:25:12.380Z,51.40
2018-02-13T21:27:41.069Z,51.00
2018-02-13T21:30:11.512Z,52.10
2018-02-13T21:32:40.396Z,53.70
2018-02-13T21:35:08.838Z,56.50
2018-02-13T21:37:37.168Z,56.90
2018-02-13T21:40:05.626Z,56.70
2018-02-13T21:42:50.548Z,56.90
2018-02-13T21:45:20.274Z,57.80
2018-02-13T21:47:52.607Z,59.10
2018-02-13T21:50:22.436Z,58.70
2018-02-13T21:52:52.372Z,59.00
2018-02-13T21:55:20.981Z,58.50
2018-02-13T21:57:49.408Z,59.10
2018-02-13T22:00:20.084Z,60.00
2018-02-13T22:02:53.942Z,59.50
2018-02-13T22:05:22.487Z,60.10
2018-02-13T22:10:39.597Z,59.90
2018-02-13T22:13:20.986Z,60.60
2018-02-13T22:15:50.333Z,60.90
2018-02-13T22:18:19.141Z,61.60
2018-02-13T22:23:57.100Z,61.80
2018-02-13T22:26:25.407Z,62.30
2018-02-13T22:28:54.102Z,62.80
2018-02-13T22:31:23.026Z,62.90
2018-02-13T22:33:51.344Z,63.00
2018-02-13T22:36:19.724Z,63.60
2018-02-13T22:38:48.166Z,64.20
2018-02-13T22:41:16.650Z,64.30
2018-02-13T22:43:45.009Z,64.40
2018-02-13T22:46:13.446Z,64.20
2018-02-13T22:48:41.889Z,65.00
2018-02-13T22:51:10.221Z,64.90
2018-02-13T22:53:40.524Z,65.10
2018-02-13T22:56:08.990Z,64.30
2018-02-13T22:58:37.387Z,64.70
2018-02-13T23:01:05.707Z,65.40
2018-02-13T23:03:35.033Z,64.60
2018-02-13T23:06:03.439Z,65.70
2018-02-13T23:08:31.787Z,66.50
2018-02-13T23:11:00.181Z,65.60
2018-02-13T23:13:28.527Z,65.60
2018-02-13T23:16:02.622Z,65.80
2018-02-13T23:18:30.975Z,66.00
2018-02-13T23:20:59.704Z,66.80
2018-02-13T23:23:28.101Z,66.50
2018-02-13T23:25:56.486Z,67.40
2018-02-13T23:28:26.238Z,67.10
2018-02-13T23:30:55.808Z,67.30
2018-02-13T23:33:24.431Z,68.20
2018-02-13T23:35:52.926Z,68.40
2018-02-13T23:38:21.268Z,68.60
2018-02-13T23:40:49.650Z,68.80
2018-02-13T23:43:22.738Z,68.30
2018-02-13T23:45:51.118Z,68.20
2018-02-13T23:48:19.418Z,68.20
2018-02-13T23:50:47.797Z,68.80
2018-02-13T23:53:16.180Z,69.50
2018-02-13T23:55:44.563Z,69.20
2018-02-13T23:58:14.451Z,69.30
